Spar Hydra — LAKL7 — position and weather

sailwx.info

Track history (hours):
 
Tides and Currents Weather Stations Pressure Air Temp Water Temp Dewpoint Dewpoint Depression Visibility Wind Speed Wind Dir Waves Ship Positions

Spar Hydra

Last reported at 2015-Jan-24 11:31 UTC. Time now 2015-Jan-30 15:35 UTC.
Position N 25°41' E 121°02'.

Length 190 m; draft 12.9 m.

Type: Ship. MMSI: 259701000.

Date/timePositionNaut miles runAvg speedWind from/ knotsBaromVisibWave heightAir tempDewpointWater temp
2015-Jan-24 11:31N 25°41' E 121°02'7412.4
2015-Jan-24 05:33N 24°40' E 120°17'12412.3
2015-Jan-23 19:29N 22°40' E 119°38'  
2015-Jan-17 07:29N 01°15' E 104°04'7 4.9
2015-Jan-17 06:07N 01°17' E 103°58'0 0.0
2015-Jan-17 05:25N 01°17' E 103°58'0 0.0
2015-Jan-17 04:25N 01°17' E 103°58'0 0.0
2015-Jan-17 03:33N 01°17' E 103°58'0 0.0
2015-Jan-17 02:33N 01°17' E 103°58'0 0.1
2015-Jan-17 01:33N 01°17' E 103°58'0 0.1
2015-Jan-17 00:33N 01°17' E 103°58'0 0.1
2015-Jan-16 23:32N 01°17' E 103°58'0 0.0
2015-Jan-16 22:32N 01°17' E 103°58'0 0.0
2015-Jan-16 21:33N 01°17' E 103°58'0 0.0
2015-Jan-16 20:33N 01°17' E 103°58'0 0.0
2015-Jan-16 19:33N 01°17' E 103°58'0 0.0
2015-Jan-16 18:33N 01°17' E 103°58'0 0.0
2015-Jan-16 17:33N 01°17' E 103°58'0 0.0
2015-Jan-16 16:33N 01°17' E 103°58'0 0.0
2015-Jan-16 15:33N 01°17' E 103°58'0 0.0
2015-Jan-16 14:33N 01°17' E 103°58'0 0.0
2015-Jan-16 13:33N 01°17' E 103°58'0 0.0
2015-Jan-16 12:33N 01°17' E 103°58'0 0.0
2015-Jan-16 11:33N 01°17' E 103°58'0 0.0
2015-Jan-16 10:33N 01°17' E 103°58'0 0.0
2015-Jan-16 09:33N 01°17' E 103°58'0 0.1
2015-Jan-16 08:23N 01°17' E 103°58'0 0.1
2015-Jan-16 07:33N 01°17' E 103°58'0 0.1
2015-Jan-16 06:33N 01°17' E 103°58'0 0.0
2015-Jan-16 05:33N 01°17' E 103°58'0 0.4
2015-Jan-16 04:33N 01°17' E 103°58'3 3.3
2015-Jan-16 03:33N 01°14' E 103°57'8 7.3
2015-Jan-16 02:26N 01°10' E 103°49'80 9.8
2015-Jan-15 18:12N 01°44' E 102°36'710.4
2015-Jan-15 17:33N 01°46' E 102°30'  
Track history (hours):
 
Tides and Currents Weather Stations Pressure Air Temp Water Temp Dewpoint Dewpoint Depression Visibility Wind Speed Wind Dir Waves Ship Positions

Spar Hydra

Last reported at 2015-Jan-24 11:31 UTC. Time now 2015-Jan-30 15:35 UTC.
Position N 25°41' E 121°02'.

Length 190 m; draft 12.9 m.

Type: Ship. MMSI: 259701000.

Date/timePositionNaut miles runAvg speedWind from/ knotsBaromVisibWave heightAir tempDewpointWater temp
2015-Jan-24 11:31N 25°41' E 121°02'7412.4
2015-Jan-24 05:33N 24°40' E 120°17'12412.3
2015-Jan-23 19:29N 22°40' E 119°38'  
2015-Jan-17 07:29N 01°15' E 104°04'7 4.9
2015-Jan-17 06:07N 01°17' E 103°58'0 0.0
2015-Jan-17 05:25N 01°17' E 103°58'0 0.0
2015-Jan-17 04:25N 01°17' E 103°58'0 0.0
2015-Jan-17 03:33N 01°17' E 103°58'0 0.0
2015-Jan-17 02:33N 01°17' E 103°58'0 0.1
2015-Jan-17 01:33N 01°17' E 103°58'0 0.1
2015-Jan-17 00:33N 01°17' E 103°58'0 0.1
2015-Jan-16 23:32N 01°17' E 103°58'0 0.0
2015-Jan-16 22:32N 01°17' E 103°58'0 0.0
2015-Jan-16 21:33N 01°17' E 103°58'0 0.0
2015-Jan-16 20:33N 01°17' E 103°58'0 0.0
2015-Jan-16 19:33N 01°17' E 103°58'0 0.0
2015-Jan-16 18:33N 01°17' E 103°58'0 0.0
2015-Jan-16 17:33N 01°17' E 103°58'0 0.0
2015-Jan-16 16:33N 01°17' E 103°58'0 0.0
2015-Jan-16 15:33N 01°17' E 103°58'0 0.0
2015-Jan-16 14:33N 01°17' E 103°58'0 0.0
2015-Jan-16 13:33N 01°17' E 103°58'0 0.0
2015-Jan-16 12:33N 01°17' E 103°58'0 0.0
2015-Jan-16 11:33N 01°17' E 103°58'0 0.0
2015-Jan-16 10:33N 01°17' E 103°58'0 0.0
2015-Jan-16 09:33N 01°17' E 103°58'0 0.1
2015-Jan-16 08:23N 01°17' E 103°58'0 0.1
2015-Jan-16 07:33N 01°17' E 103°58'0 0.1
2015-Jan-16 06:33N 01°17' E 103°58'0 0.0
2015-Jan-16 05:33N 01°17' E 103°58'0 0.4
2015-Jan-16 04:33N 01°17' E 103°58'3 3.3
2015-Jan-16 03:33N 01°14' E 103°57'8 7.3
2015-Jan-16 02:26N 01°10' E 103°49'80 9.8
2015-Jan-15 18:12N 01°44' E 102°36'710.4
2015-Jan-15 17:33N 01°46' E 102°30'  

Dump ship's entire track history